sensor_id;sensor_type;location;lat;lon;timestamp;P1;durP1;ratioP1;P2;durP2;ratioP2
57107;SDS011;42987;52.916;6.542;2023-10-19T00:00:57;31.20;;;27.90;;
57107;SDS011;42987;52.916;6.542;2023-10-19T00:03:25;31.50;;;27.95;;
57107;SDS011;42987;52.916;6.542;2023-10-19T00:05:52;30.90;;;27.55;;
57107;SDS011;42987;52.916;6.542;2023-10-19T00:08:20;34.53;;;29.52;;
57107;SDS011;42987;52.916;6.542;2023-10-19T00:10:47;32.35;;;29.02;;
57107;SDS011;42987;52.916;6.542;2023-10-19T00:13:34;33.15;;;29.70;;
57107;SDS011;42987;52.916;6.542;2023-10-19T00:16:04;33.83;;;30.23;;
57107;SDS011;42987;52.916;6.542;2023-10-19T00:18:41;33.45;;;29.63;;
57107;SDS011;42987;52.916;6.542;2023-10-19T00:21:13;34.58;;;30.83;;
57107;SDS011;42987;52.916;6.542;2023-10-19T00:23:50;33.92;;;30.33;;
57107;SDS011;42987;52.916;6.542;2023-10-19T00:26:25;35.35;;;31.60;;
57107;SDS011;42987;52.916;6.542;2023-10-19T00:28:52;36.15;;;32.10;;
57107;SDS011;42987;52.916;6.542;2023-10-19T00:31:20;36.50;;;32.60;;
57107;SDS011;42987;52.916;6.542;2023-10-19T00:33:52;37.28;;;32.45;;
57107;SDS011;42987;52.916;6.542;2023-10-19T00:36:22;37.67;;;32.63;;
57107;SDS011;42987;52.916;6.542;2023-10-19T00:38:49;37.00;;;32.20;;
57107;SDS011;42987;52.916;6.542;2023-10-19T00:41:25;38.25;;;34.10;;
57107;SDS011;42987;52.916;6.542;2023-10-19T00:44:00;36.58;;;32.72;;
57107;SDS011;42987;52.916;6.542;2023-10-19T00:46:36;37.00;;;32.90;;
57107;SDS011;42987;52.916;6.542;2023-10-19T00:49:08;36.38;;;32.10;;
57107;SDS011;42987;52.916;6.542;2023-10-19T00:51:42;40.88;;;35.03;;
57107;SDS011;42987;52.916;6.542;2023-10-19T00:54:18;39.72;;;33.63;;
57107;SDS011;42987;52.916;6.542;2023-10-19T00:57:06;39.53;;;35.15;;
57107;SDS011;42987;52.916;6.542;2023-10-19T00:59:38;39.47;;;35.33;;
57107;SDS011;42987;52.916;6.542;2023-10-19T01:02:12;40.25;;;34.75;;
57107;SDS011;42987;52.916;6.542;2023-10-19T01:04:54;41.65;;;35.35;;
57107;SDS011;42987;52.916;6.542;2023-10-19T01:07:28;41.60;;;37.08;;
57107;SDS011;42987;52.916;6.542;2023-10-19T01:09:55;40.03;;;35.70;;
57107;SDS011;42987;52.916;6.542;2023-10-19T01:12:30;43.38;;;37.28;;
57107;SDS011;42987;52.916;6.542;2023-10-19T01:17:44;42.63;;;36.65;;
57107;SDS011;42987;52.916;6.542;2023-10-19T01:20:18;43.63;;;38.85;;
57107;SDS011;42987;52.916;6.542;2023-10-19T01:23:06;43.92;;;37.83;;
57107;SDS011;42987;52.916;6.542;2023-10-19T01:28:24;41.80;;;36.95;;
57107;SDS011;42987;52.916;6.542;2023-10-19T01:31:08;41.50;;;36.97;;
57107;SDS011;42987;52.916;6.542;2023-10-19T01:33:54;47.58;;;37.50;;
57107;SDS011;42987;52.916;6.542;2023-10-19T01:36:21;44.67;;;38.83;;
57107;SDS011;42987;52.916;6.542;2023-10-19T01:38:47;45.30;;;37.97;;
57107;SDS011;42987;52.916;6.542;2023-10-19T01:41:14;38.42;;;34.33;;
57107;SDS011;42987;52.916;6.542;2023-10-19T01:43:47;44.95;;;38.13;;
57107;SDS011;42987;52.916;6.542;2023-10-19T01:46:15;44.80;;;38.42;;
57107;SDS011;42987;52.916;6.542;2023-10-19T01:48:56;41.15;;;36.70;;
57107;SDS011;42987;52.916;6.542;2023-10-19T01:51:23;41.33;;;35.95;;
57107;SDS011;42987;52.916;6.542;2023-10-19T01:53:51;39.95;;;35.58;;
57107;SDS011;42987;52.916;6.542;2023-10-19T01:56:17;38.50;;;34.22;;
57107;SDS011;42987;52.916;6.542;2023-10-19T01:58:47;38.58;;;34.53;;
57107;SDS011;42987;52.916;6.542;2023-10-19T02:01:14;37.47;;;33.42;;
57107;SDS011;42987;52.916;6.542;2023-10-19T02:03:46;37.00;;;33.00;;
57107;SDS011;42987;52.916;6.542;2023-10-19T02:06:13;39.15;;;34.53;;
57107;SDS011;42987;52.916;6.542;2023-10-19T02:08:55;36.22;;;32.28;;
57107;SDS011;42987;52.916;6.542;2023-10-19T02:11:26;34.33;;;30.35;;
57107;SDS011;42987;52.916;6.542;2023-10-19T02:13:54;36.30;;;32.45;;
57107;SDS011;42987;52.916;6.542;2023-10-19T02:16:21;35.53;;;31.63;;
57107;SDS011;42987;52.916;6.542;2023-10-19T02:18:48;33.28;;;29.70;;
57107;SDS011;42987;52.916;6.542;2023-10-19T02:21:15;32.80;;;28.85;;
57107;SDS011;42987;52.916;6.542;2023-10-19T02:23:47;33.38;;;29.75;;
57107;SDS011;42987;52.916;6.542;2023-10-19T02:26:19;33.67;;;30.08;;
57107;SDS011;42987;52.916;6.542;2023-10-19T02:28:47;32.17;;;28.10;;
57107;SDS011;42987;52.916;6.542;2023-10-19T02:31:17;31.10;;;27.70;;
57107;SDS011;42987;52.916;6.542;2023-10-19T02:33:48;29.63;;;26.40;;
57107;SDS011;42987;52.916;6.542;2023-10-19T02:36:23;31.02;;;27.67;;
57107;SDS011;42987;52.916;6.542;2023-10-19T02:38:59;30.85;;;27.55;;
57107;SDS011;42987;52.916;6.542;2023-10-19T02:41:33;32.20;;;27.23;;
57107;SDS011;42987;52.916;6.542;2023-10-19T02:44:19;31.25;;;27.50;;
57107;SDS011;42987;52.916;6.542;2023-10-19T02:49:34;32.15;;;28.40;;
57107;SDS011;42987;52.916;6.542;2023-10-19T02:52:04;31.50;;;27.25;;
57107;SDS011;42987;52.916;6.542;2023-10-19T02:54:30;29.27;;;26.10;;
57107;SDS011;42987;52.916;6.542;2023-10-19T02:56:59;29.50;;;26.30;;
57107;SDS011;42987;52.916;6.542;2023-10-19T02:59:26;29.48;;;26.27;;
57107;SDS011;42987;52.916;6.542;2023-10-19T03:01:58;28.33;;;25.42;;
57107;SDS011;42987;52.916;6.542;2023-10-19T03:04:32;30.02;;;26.58;;
57107;SDS011;42987;52.916;6.542;2023-10-19T03:07:02;28.95;;;25.85;;
57107;SDS011;42987;52.916;6.542;2023-10-19T03:09:32;29.48;;;26.10;;
57107;SDS011;42987;52.916;6.542;2023-10-19T03:12:01;30.20;;;26.35;;
57107;SDS011;42987;52.916;6.542;2023-10-19T03:14:29;31.33;;;26.98;;
57107;SDS011;42987;52.916;6.542;2023-10-19T03:16:56;30.00;;;25.63;;
57107;SDS011;42987;52.916;6.542;2023-10-19T03:19:24;31.58;;;27.13;;
57107;SDS011;42987;52.916;6.542;2023-10-19T03:21:50;31.52;;;28.13;;
57107;SDS011;42987;52.916;6.542;2023-10-19T03:24:17;30.70;;;27.40;;
57107;SDS011;42987;52.916;6.542;2023-10-19T03:27:04;30.67;;;27.25;;
57107;SDS011;42987;52.916;6.542;2023-10-19T03:32:11;30.35;;;27.05;;
57107;SDS011;42987;52.916;6.542;2023-10-19T03:34:37;29.00;;;24.65;;
57107;SDS011;42987;52.916;6.542;2023-10-19T03:37:03;26.83;;;24.02;;
57107;SDS011;42987;52.916;6.542;2023-10-19T03:39:40;28.13;;;25.10;;
57107;SDS011;42987;52.916;6.542;2023-10-19T03:42:07;29.48;;;26.27;;
57107;SDS011;42987;52.916;6.542;2023-10-19T03:44:38;29.63;;;25.05;;
57107;SDS011;42987;52.916;6.542;2023-10-19T03:47:16;26.73;;;23.75;;
57107;SDS011;42987;52.916;6.542;2023-10-19T03:49:48;26.30;;;23.63;;
57107;SDS011;42987;52.916;6.542;2023-10-19T03:52:15;25.50;;;22.50;;
57107;SDS011;42987;52.916;6.542;2023-10-19T03:54:41;26.10;;;23.30;;
57107;SDS011;42987;52.916;6.542;2023-10-19T03:57:08;25.70;;;23.00;;
57107;SDS011;42987;52.916;6.542;2023-10-19T04:02:04;26.70;;;24.00;;
57107;SDS011;42987;52.916;6.542;2023-10-19T04:04:42;27.30;;;24.27;;
57107;SDS011;42987;52.916;6.542;2023-10-19T04:07:14;28.77;;;24.80;;
57107;SDS011;42987;52.916;6.542;2023-10-19T04:09:50;26.08;;;23.40;;
57107;SDS011;42987;52.916;6.542;2023-10-19T04:12:32;27.65;;;24.55;;
57107;SDS011;42987;52.916;6.542;2023-10-19T04:15:05;27.25;;;24.20;;
57107;SDS011;42987;52.916;6.542;2023-10-19T04:17:37;28.00;;;24.77;;
57107;SDS011;42987;52.916;6.542;2023-10-19T04:20:07;28.17;;;24.65;;
57107;SDS011;42987;52.916;6.542;2023-10-19T04:22:53;26.63;;;23.70;;
57107;SDS011;42987;52.916;6.542;2023-10-19T04:25:19;28.45;;;24.77;;
57107;SDS011;42987;52.916;6.542;2023-10-19T04:27:46;27.73;;;24.73;;
57107;SDS011;42987;52.916;6.542;2023-10-19T04:30:12;28.25;;;25.17;;
57107;SDS011;42987;52.916;6.542;2023-10-19T04:32:51;27.87;;;24.80;;
57107;SDS011;42987;52.916;6.542;2023-10-19T04:35:18;29.77;;;25.67;;
57107;SDS011;42987;52.916;6.542;2023-10-19T04:37:48;28.55;;;24.52;;
57107;SDS011;42987;52.916;6.542;2023-10-19T04:40:19;28.33;;;25.02;;
57107;SDS011;42987;52.916;6.542;2023-10-19T04:42:46;27.52;;;24.20;;
57107;SDS011;42987;52.916;6.542;2023-10-19T04:45:13;28.88;;;24.63;;
57107;SDS011;42987;52.916;6.542;2023-10-19T04:47:39;26.45;;;23.63;;
57107;SDS011;42987;52.916;6.542;2023-10-19T04:50:05;26.92;;;24.05;;
57107;SDS011;42987;52.916;6.542;2023-10-19T04:52:32;28.77;;;25.27;;
57107;SDS011;42987;52.916;6.542;2023-10-19T04:55:01;29.27;;;24.80;;
57107;SDS011;42987;52.916;6.542;2023-10-19T04:57:27;28.13;;;25.00;;
57107;SDS011;42987;52.916;6.542;2023-10-19T04:59:53;27.65;;;24.33;;
57107;SDS011;42987;52.916;6.542;2023-10-19T05:02:20;26.73;;;23.05;;
57107;SDS011;42987;52.916;6.542;2023-10-19T05:04:46;26.63;;;23.77;;
57107;SDS011;42987;52.916;6.542;2023-10-19T05:07:13;26.40;;;23.60;;
57107;SDS011;42987;52.916;6.542;2023-10-19T05:09:42;28.15;;;24.70;;
57107;SDS011;42987;52.916;6.542;2023-10-19T05:12:08;28.15;;;24.95;;
57107;SDS011;42987;52.916;6.542;2023-10-19T05:14:35;29.77;;;26.60;;
57107;SDS011;42987;52.916;6.542;2023-10-19T05:17:04;30.25;;;26.92;;
57107;SDS011;42987;52.916;6.542;2023-10-19T05:19:31;28.02;;;24.98;;
57107;SDS011;42987;52.916;6.542;2023-10-19T05:21:57;27.40;;;24.48;;
57107;SDS011;42987;52.916;6.542;2023-10-19T05:24:24;33.33;;;26.92;;
57107;SDS011;42987;52.916;6.542;2023-10-19T05:26:50;27.13;;;24.23;;
57107;SDS011;42987;52.916;6.542;2023-10-19T05:29:21;24.55;;;21.95;;
57107;SDS011;42987;52.916;6.542;2023-10-19T05:34:26;24.88;;;22.27;;
57107;SDS011;42987;52.916;6.542;2023-10-19T05:36:52;24.80;;;22.17;;
57107;SDS011;42987;52.916;6.542;2023-10-19T05:39:19;24.75;;;22.15;;
57107;SDS011;42987;52.916;6.542;2023-10-19T05:41:45;24.55;;;21.95;;
57107;SDS011;42987;52.916;6.542;2023-10-19T05:44:12;23.00;;;20.60;;
57107;SDS011;42987;52.916;6.542;2023-10-19T05:46:37;22.90;;;19.83;;
57107;SDS011;42987;52.916;6.542;2023-10-19T05:49:05;22.88;;;20.35;;
57107;SDS011;42987;52.916;6.542;2023-10-19T05:51:31;22.88;;;20.38;;
57107;SDS011;42987;52.916;6.542;2023-10-19T05:53:57;22.70;;;20.27;;
57107;SDS011;42987;52.916;6.542;2023-10-19T05:56:29;24.40;;;20.48;;
57107;SDS011;42987;52.916;6.542;2023-10-19T05:59:01;24.27;;;21.35;;
57107;SDS011;42987;52.916;6.542;2023-10-19T06:01:27;20.67;;;18.48;;
57107;SDS011;42987;52.916;6.542;2023-10-19T06:03:53;20.77;;;18.13;;
57107;SDS011;42987;52.916;6.542;2023-10-19T06:06:19;21.85;;;19.08;;
57107;SDS011;42987;52.916;6.542;2023-10-19T06:08:48;22.08;;;19.25;;
57107;SDS011;42987;52.916;6.542;2023-10-19T06:11:18;20.98;;;18.77;;
57107;SDS011;42987;52.916;6.542;2023-10-19T06:13:45;20.52;;;18.40;;
57107;SDS011;42987;52.916;6.542;2023-10-19T06:16:11;19.83;;;17.90;;
57107;SDS011;42987;52.916;6.542;2023-10-19T06:18:37;20.95;;;18.85;;
57107;SDS011;42987;52.916;6.542;2023-10-19T06:21:02;22.73;;;19.48;;
57107;SDS011;42987;52.916;6.542;2023-10-19T06:23:29;20.30;;;18.08;;
57107;SDS011;42987;52.916;6.542;2023-10-19T06:25:56;20.33;;;18.23;;
57107;SDS011;42987;52.916;6.542;2023-10-19T06:28:22;21.02;;;18.90;;
57107;SDS011;42987;52.916;6.542;2023-10-19T06:30:48;30.15;;;21.90;;
57107;SDS011;42987;52.916;6.542;2023-10-19T06:33:15;23.98;;;20.25;;
57107;SDS011;42987;52.916;6.542;2023-10-19T06:35:41;21.30;;;19.10;;
57107;SDS011;42987;52.916;6.542;2023-10-19T06:38:07;19.83;;;17.83;;
57107;SDS011;42987;52.916;6.542;2023-10-19T06:40:34;21.65;;;19.45;;
57107;SDS011;42987;52.916;6.542;2023-10-19T06:43:04;20.92;;;18.80;;
57107;SDS011;42987;52.916;6.542;2023-10-19T06:45:30;20.42;;;18.33;;
57107;SDS011;42987;52.916;6.542;2023-10-19T06:47:57;21.38;;;18.92;;
57107;SDS011;42987;52.916;6.542;2023-10-19T06:50:26;20.60;;;18.40;;
57107;SDS011;42987;52.916;6.542;2023-10-19T06:52:52;20.42;;;18.20;;
57107;SDS011;42987;52.916;6.542;2023-10-19T06:55:19;19.63;;;17.67;;
57107;SDS011;42987;52.916;6.542;2023-10-19T06:57:49;19.08;;;17.17;;
57107;SDS011;42987;52.916;6.542;2023-10-19T07:00:16;19.98;;;17.55;;
57107;SDS011;42987;52.916;6.542;2023-10-19T07:02:48;20.52;;;18.05;;
57107;SDS011;42987;52.916;6.542;2023-10-19T07:05:16;20.10;;;18.10;;
57107;SDS011;42987;52.916;6.542;2023-10-19T07:07:50;19.85;;;17.83;;
57107;SDS011;42987;52.916;6.542;2023-10-19T07:10:19;19.83;;;17.85;;
57107;SDS011;42987;52.916;6.542;2023-10-19T07:12:47;19.20;;;17.30;;
57107;SDS011;42987;52.916;6.542;2023-10-19T07:15:15;18.90;;;17.00;;
57107;SDS011;42987;52.916;6.542;2023-10-19T07:17:45;19.85;;;17.75;;
57107;SDS011;42987;52.916;6.542;2023-10-19T07:20:13;18.63;;;16.83;;
57107;SDS011;42987;52.916;6.542;2023-10-19T07:22:54;19.88;;;17.88;;
57107;SDS011;42987;52.916;6.542;2023-10-19T07:25:21;18.70;;;16.80;;
57107;SDS011;42987;52.916;6.542;2023-10-19T07:27:51;18.38;;;16.48;;
57107;SDS011;42987;52.916;6.542;2023-10-19T07:30:18;19.15;;;17.17;;
57107;SDS011;42987;52.916;6.542;2023-10-19T07:32:51;18.73;;;16.73;;
57107;SDS011;42987;52.916;6.542;2023-10-19T07:35:23;20.98;;;18.83;;
57107;SDS011;42987;52.916;6.542;2023-10-19T07:37:51;20.05;;;18.05;;
57107;SDS011;42987;52.916;6.542;2023-10-19T07:40:17;20.58;;;18.20;;
57107;SDS011;42987;52.916;6.542;2023-10-19T07:42:44;19.98;;;17.80;;
57107;SDS011;42987;52.916;6.542;2023-10-19T07:45:11;19.40;;;17.30;;
57107;SDS011;42987;52.916;6.542;2023-10-19T07:47:56;23.55;;;18.92;;
57107;SDS011;42987;52.916;6.542;2023-10-19T07:50:22;19.63;;;17.63;;
57107;SDS011;42987;52.916;6.542;2023-10-19T07:52:51;19.92;;;17.88;;
57107;SDS011;42987;52.916;6.542;2023-10-19T07:55:20;22.92;;;18.77;;
57107;SDS011;42987;52.916;6.542;2023-10-19T07:57:51;22.08;;;19.50;;
57107;SDS011;42987;52.916;6.542;2023-10-19T08:00:19;23.80;;;20.17;;
57107;SDS011;42987;52.916;6.542;2023-10-19T08:02:46;21.13;;;18.85;;
57107;SDS011;42987;52.916;6.542;2023-10-19T08:05:15;22.38;;;18.70;;
57107;SDS011;42987;52.916;6.542;2023-10-19T08:07:45;22.60;;;19.33;;
57107;SDS011;42987;52.916;6.542;2023-10-19T08:10:17;23.15;;;19.45;;
57107;SDS011;42987;52.916;6.542;2023-10-19T08:12:44;54.50;;;27.85;;
57107;SDS011;42987;52.916;6.542;2023-10-19T08:15:14;25.13;;;20.70;;
57107;SDS011;42987;52.916;6.542;2023-10-19T08:17:42;22.05;;;19.85;;
57107;SDS011;42987;52.916;6.542;2023-10-19T08:20:13;27.10;;;22.65;;
57107;SDS011;42987;52.916;6.542;2023-10-19T08:22:48;24.65;;;21.95;;
57107;SDS011;42987;52.916;6.542;2023-10-19T08:25:18;29.95;;;23.73;;
57107;SDS011;42987;52.916;6.542;2023-10-19T08:27:44;31.85;;;23.80;;
57107;SDS011;42987;52.916;6.542;2023-10-19T08:30:11;32.10;;;23.90;;
57107;SDS011;42987;52.916;6.542;2023-10-19T08:32:40;33.10;;;25.43;;
57107;SDS011;42987;52.916;6.542;2023-10-19T08:35:13;34.75;;;25.23;;
57107;SDS011;42987;52.916;6.542;2023-10-19T08:37:41;37.70;;;26.52;;
57107;SDS011;42987;52.916;6.542;2023-10-19T08:40:07;34.75;;;26.58;;
57107;SDS011;42987;52.916;6.542;2023-10-19T08:42:42;32.20;;;24.13;;
57107;SDS011;42987;52.916;6.542;2023-10-19T08:45:10;36.10;;;26.00;;
57107;SDS011;42987;52.916;6.542;2023-10-19T08:48:01;34.05;;;26.00;;
57107;SDS011;42987;52.916;6.542;2023-10-19T08:50:31;37.47;;;25.98;;
57107;SDS011;42987;52.916;6.542;2023-10-19T08:53:00;36.65;;;25.70;;
57107;SDS011;42987;52.916;6.542;2023-10-19T08:55:36;37.10;;;26.50;;
57107;SDS011;42987;52.916;6.542;2023-10-19T08:58:02;35.35;;;25.95;;
57107;SDS011;42987;52.916;6.542;2023-10-19T09:00:45;34.17;;;25.03;;
57107;SDS011;42987;52.916;6.542;2023-10-19T09:03:16;39.35;;;26.00;;
57107;SDS011;42987;52.916;6.542;2023-10-19T09:05:42;32.03;;;24.95;;
57107;SDS011;42987;52.916;6.542;2023-10-19T09:08:13;32.90;;;25.05;;
57107;SDS011;42987;52.916;6.542;2023-10-19T09:10:43;37.13;;;26.42;;
57107;SDS011;42987;52.916;6.542;2023-10-19T09:13:12;34.20;;;24.30;;
57107;SDS011;42987;52.916;6.542;2023-10-19T09:15:41;33.00;;;25.83;;
57107;SDS011;42987;52.916;6.542;2023-10-19T09:18:19;32.65;;;26.15;;
57107;SDS011;42987;52.916;6.542;2023-10-19T09:20:50;30.25;;;23.50;;
57107;SDS011;42987;52.916;6.542;2023-10-19T09:23:21;38.17;;;28.33;;
57107;SDS011;42987;52.916;6.542;2023-10-19T09:25:51;33.58;;;26.00;;
57107;SDS011;42987;52.916;6.542;2023-10-19T09:28:20;33.75;;;25.13;;
57107;SDS011;42987;52.916;6.542;2023-10-19T09:30:50;31.73;;;25.00;;
57107;SDS011;42987;52.916;6.542;2023-10-19T09:33:17;33.90;;;27.30;;
57107;SDS011;42987;52.916;6.542;2023-10-19T09:35:46;35.67;;;26.77;;
57107;SDS011;42987;52.916;6.542;2023-10-19T09:38:14;45.10;;;29.10;;
57107;SDS011;42987;52.916;6.542;2023-10-19T09:40:40;37.70;;;27.83;;
57107;SDS011;42987;52.916;6.542;2023-10-19T09:43:08;33.88;;;26.75;;
57107;SDS011;42987;52.916;6.542;2023-10-19T09:45:41;31.13;;;26.52;;
57107;SDS011;42987;52.916;6.542;2023-10-19T09:48:15;36.53;;;27.80;;
57107;SDS011;42987;52.916;6.542;2023-10-19T09:50:43;36.72;;;28.70;;
57107;SDS011;42987;52.916;6.542;2023-10-19T09:53:16;38.28;;;29.90;;
57107;SDS011;42987;52.916;6.542;2023-10-19T09:55:43;33.00;;;28.08;;
57107;SDS011;42987;52.916;6.542;2023-10-19T09:58:15;34.38;;;27.40;;
57107;SDS011;42987;52.916;6.542;2023-10-19T10:00:46;36.72;;;28.05;;
57107;SDS011;42987;52.916;6.542;2023-10-19T10:06:16;39.80;;;28.52;;
57107;SDS011;42987;52.916;6.542;2023-10-19T10:08:51;36.97;;;28.05;;
57107;SDS011;42987;52.916;6.542;2023-10-19T10:11:25;36.70;;;27.40;;
57107;SDS011;42987;52.916;6.542;2023-10-19T10:13:56;36.63;;;29.17;;
57107;SDS011;42987;52.916;6.542;2023-10-19T10:16:27;38.63;;;29.75;;
57107;SDS011;42987;52.916;6.542;2023-10-19T10:18:57;40.80;;;30.13;;
57107;SDS011;42987;52.916;6.542;2023-10-19T10:21:25;39.67;;;30.25;;
57107;SDS011;42987;52.916;6.542;2023-10-19T10:23:53;41.42;;;29.77;;
57107;SDS011;42987;52.916;6.542;2023-10-19T10:26:24;44.63;;;30.98;;
57107;SDS011;42987;52.916;6.542;2023-10-19T10:31:46;41.83;;;31.40;;
57107;SDS011;42987;52.916;6.542;2023-10-19T10:37:08;48.55;;;34.65;;
57107;SDS011;42987;52.916;6.542;2023-10-19T10:39:36;51.05;;;35.05;;
57107;SDS011;42987;52.916;6.542;2023-10-19T10:42:07;57.38;;;38.30;;
57107;SDS011;42987;52.916;6.542;2023-10-19T10:44:37;55.47;;;36.70;;
57107;SDS011;42987;52.916;6.542;2023-10-19T10:47:10;55.38;;;37.50;;
57107;SDS011;42987;52.916;6.542;2023-10-19T10:52:23;52.80;;;36.13;;
57107;SDS011;42987;52.916;6.542;2023-10-19T10:55:06;54.33;;;36.95;;
57107;SDS011;42987;52.916;6.542;2023-10-19T10:57:36;51.45;;;35.65;;
57107;SDS011;42987;52.916;6.542;2023-10-19T11:00:08;47.28;;;34.88;;
57107;SDS011;42987;52.916;6.542;2023-10-19T11:02:41;43.45;;;33.30;;
57107;SDS011;42987;52.916;6.542;2023-10-19T11:05:09;47.33;;;35.25;;
57107;SDS011;42987;52.916;6.542;2023-10-19T11:07:37;47.85;;;34.45;;
57107;SDS011;42987;52.916;6.542;2023-10-19T11:10:04;46.47;;;35.38;;
57107;SDS011;42987;52.916;6.542;2023-10-19T11:12:31;51.53;;;35.00;;
57107;SDS011;42987;52.916;6.542;2023-10-19T11:14:58;43.97;;;32.92;;
57107;SDS011;42987;52.916;6.542;2023-10-19T11:17:26;38.85;;;31.30;;
57107;SDS011;42987;52.916;6.542;2023-10-19T11:19:57;45.17;;;33.65;;
57107;SDS011;42987;52.916;6.542;2023-10-19T11:22:26;44.25;;;33.47;;
57107;SDS011;42987;52.916;6.542;2023-10-19T11:24:52;41.78;;;33.38;;
57107;SDS011;42987;52.916;6.542;2023-10-19T11:27:26;43.28;;;33.67;;
57107;SDS011;42987;52.916;6.542;2023-10-19T11:29:53;41.85;;;33.35;;
57107;SDS011;42987;52.916;6.542;2023-10-19T11:32:38;43.93;;;34.93;;
57107;SDS011;42987;52.916;6.542;2023-10-19T11:35:05;45.72;;;35.17;;
57107;SDS011;42987;52.916;6.542;2023-10-19T11:37:48;42.63;;;34.17;;
57107;SDS011;42987;52.916;6.542;2023-10-19T11:40:15;54.97;;;38.40;;
57107;SDS011;42987;52.916;6.542;2023-10-19T11:42:41;45.50;;;35.28;;
57107;SDS011;42987;52.916;6.542;2023-10-19T11:45:08;40.58;;;32.50;;
57107;SDS011;42987;52.916;6.542;2023-10-19T11:47:34;39.72;;;31.38;;
57107;SDS011;42987;52.916;6.542;2023-10-19T11:50:00;41.42;;;33.35;;
57107;SDS011;42987;52.916;6.542;2023-10-19T11:52:25;40.92;;;30.90;;
57107;SDS011;42987;52.916;6.542;2023-10-19T11:54:53;38.58;;;30.92;;
57107;SDS011;42987;52.916;6.542;2023-10-19T11:57:19;40.90;;;31.33;;
57107;SDS011;42987;52.916;6.542;2023-10-19T11:59:45;41.42;;;32.25;;
57107;SDS011;42987;52.916;6.542;2023-10-19T12:02:10;42.22;;;33.63;;
57107;SDS011;42987;52.916;6.542;2023-10-19T12:04:36;36.60;;;31.88;;
57107;SDS011;42987;52.916;6.542;2023-10-19T12:07:02;39.55;;;31.00;;
57107;SDS011;42987;52.916;6.542;2023-10-19T12:09:31;38.53;;;31.55;;
57107;SDS011;42987;52.916;6.542;2023-10-19T12:12:01;40.45;;;31.90;;
57107;SDS011;42987;52.916;6.542;2023-10-19T12:14:29;37.17;;;30.10;;
57107;SDS011;42987;52.916;6.542;2023-10-19T12:16:54;47.38;;;35.60;;
57107;SDS011;42987;52.916;6.542;2023-10-19T12:19:20;38.88;;;30.77;;
57107;SDS011;42987;52.916;6.542;2023-10-19T12:21:47;39.05;;;32.42;;
57107;SDS011;42987;52.916;6.542;2023-10-19T12:24:14;40.00;;;31.27;;
57107;SDS011;42987;52.916;6.542;2023-10-19T12:26:40;46.08;;;35.20;;
57107;SDS011;42987;52.916;6.542;2023-10-19T12:29:07;40.90;;;33.03;;
57107;SDS011;42987;52.916;6.542;2023-10-19T12:31:36;35.78;;;29.63;;
57107;SDS011;42987;52.916;6.542;2023-10-19T12:34:05;40.80;;;31.35;;
57107;SDS011;42987;52.916;6.542;2023-10-19T12:36:31;37.13;;;29.77;;
57107;SDS011;42987;52.916;6.542;2023-10-19T12:38:57;37.90;;;32.85;;
57107;SDS011;42987;52.916;6.542;2023-10-19T12:41:24;33.13;;;27.83;;
57107;SDS011;42987;52.916;6.542;2023-10-19T12:43:53;33.67;;;27.67;;
57107;SDS011;42987;52.916;6.542;2023-10-19T12:46:34;31.92;;;28.05;;
57107;SDS011;42987;52.916;6.542;2023-10-19T12:49:03;31.92;;;28.52;;
57107;SDS011;42987;52.916;6.542;2023-10-19T12:51:36;32.35;;;29.00;;
57107;SDS011;42987;52.916;6.542;2023-10-19T12:54:03;30.05;;;26.77;;
57107;SDS011;42987;52.916;6.542;2023-10-19T12:56:29;31.98;;;27.40;;
57107;SDS011;42987;52.916;6.542;2023-10-19T12:59:04;31.88;;;27.13;;
57107;SDS011;42987;52.916;6.542;2023-10-19T13:01:33;33.70;;;27.15;;
57107;SDS011;42987;52.916;6.542;2023-10-19T13:04:00;33.70;;;28.75;;
57107;SDS011;42987;52.916;6.542;2023-10-19T13:06:38;31.35;;;26.80;;
57107;SDS011;42987;52.916;6.542;2023-10-19T13:09:04;30.55;;;26.75;;
57107;SDS011;42987;52.916;6.542;2023-10-19T13:11:30;31.08;;;26.90;;
57107;SDS011;42987;52.916;6.542;2023-10-19T13:14:17;31.95;;;28.42;;
57107;SDS011;42987;52.916;6.542;2023-10-19T13:16:44;30.15;;;26.55;;
57107;SDS011;42987;52.916;6.542;2023-10-19T13:19:10;30.08;;;26.85;;
57107;SDS011;42987;52.916;6.542;2023-10-19T13:21:41;31.85;;;28.27;;
57107;SDS011;42987;52.916;6.542;2023-10-19T13:24:10;30.83;;;27.42;;
57107;SDS011;42987;52.916;6.542;2023-10-19T13:26:36;31.40;;;28.00;;
57107;SDS011;42987;52.916;6.542;2023-10-19T13:29:06;31.80;;;26.58;;
57107;SDS011;42987;52.916;6.542;2023-10-19T13:31:32;31.25;;;27.35;;
57107;SDS011;42987;52.916;6.542;2023-10-19T13:33:58;33.08;;;28.10;;
57107;SDS011;42987;52.916;6.542;2023-10-19T13:36:25;33.83;;;26.88;;
57107;SDS011;42987;52.916;6.542;2023-10-19T13:38:50;32.95;;;26.77;;
57107;SDS011;42987;52.916;6.542;2023-10-19T13:41:16;31.67;;;28.17;;
57107;SDS011;42987;52.916;6.542;2023-10-19T13:43:42;30.33;;;26.73;;
57107;SDS011;42987;52.916;6.542;2023-10-19T13:46:09;33.10;;;28.10;;
57107;SDS011;42987;52.916;6.542;2023-10-19T13:48:35;32.03;;;27.38;;
57107;SDS011;42987;52.916;6.542;2023-10-19T13:51:02;32.22;;;28.13;;
57107;SDS011;42987;52.916;6.542;2023-10-19T13:53:41;33.25;;;27.73;;
57107;SDS011;42987;52.916;6.542;2023-10-19T13:56:10;35.13;;;28.77;;
57107;SDS011;42987;52.916;6.542;2023-10-19T13:58:37;30.67;;;27.35;;
57107;SDS011;42987;52.916;6.542;2023-10-19T14:01:07;32.10;;;27.88;;
57107;SDS011;42987;52.916;6.542;2023-10-19T14:03:34;32.45;;;29.05;;
57107;SDS011;42987;52.916;6.542;2023-10-19T14:06:05;33.00;;;29.50;;
57107;SDS011;42987;52.916;6.542;2023-10-19T14:08:37;32.40;;;29.00;;
57107;SDS011;42987;52.916;6.542;2023-10-19T14:11:06;33.45;;;29.85;;
57107;SDS011;42987;52.916;6.542;2023-10-19T14:13:33;37.22;;;30.98;;
57107;SDS011;42987;52.916;6.542;2023-10-19T14:16:10;33.45;;;29.92;;
57107;SDS011;42987;52.916;6.542;2023-10-19T14:18:36;36.47;;;31.55;;
57107;SDS011;42987;52.916;6.542;2023-10-19T14:21:16;34.47;;;30.80;;
57107;SDS011;42987;52.916;6.542;2023-10-19T14:23:43;33.22;;;28.90;;
57107;SDS011;42987;52.916;6.542;2023-10-19T14:26:10;34.78;;;29.98;;
57107;SDS011;42987;52.916;6.542;2023-10-19T14:28:37;35.08;;;29.75;;
57107;SDS011;42987;52.916;6.542;2023-10-19T14:31:03;35.38;;;29.92;;
57107;SDS011;42987;52.916;6.542;2023-10-19T14:33:29;32.60;;;29.17;;
57107;SDS011;42987;52.916;6.542;2023-10-19T14:35:56;35.97;;;29.38;;
57107;SDS011;42987;52.916;6.542;2023-10-19T14:38:21;35.83;;;31.60;;
57107;SDS011;42987;52.916;6.542;2023-10-19T14:40:50;33.42;;;29.83;;
57107;SDS011;42987;52.916;6.542;2023-10-19T14:43:16;38.42;;;32.17;;
57107;SDS011;42987;52.916;6.542;2023-10-19T14:45:42;36.00;;;30.02;;
57107;SDS011;42987;52.916;6.542;2023-10-19T14:48:08;36.00;;;30.95;;
57107;SDS011;42987;52.916;6.542;2023-10-19T14:50:35;38.78;;;31.88;;
57107;SDS011;42987;52.916;6.542;2023-10-19T14:53:03;35.38;;;30.45;;
57107;SDS011;42987;52.916;6.542;2023-10-19T14:55:29;36.03;;;31.90;;
57107;SDS011;42987;52.916;6.542;2023-10-19T14:57:55;40.20;;;32.58;;
57107;SDS011;42987;52.916;6.542;2023-10-19T15:00:22;37.05;;;30.75;;
57107;SDS011;42987;52.916;6.542;2023-10-19T15:02:59;40.20;;;33.88;;